sensor_id;sensor_type;location;lat;lon;timestamp;pressure;altitude;pressure_sealevel;temperature;humidity
48156;BME280;35568;48.104;11.782;2024-03-17T00:02:20;96065.01;;;9.19;51.86
48156;BME280;35568;48.104;11.782;2024-03-17T00:04:46;96066.89;;;9.13;52.42
48156;BME280;35568;48.104;11.782;2024-03-17T00:07:14;96070.58;;;8.67;52.65
48156;BME280;35568;48.104;11.782;2024-03-17T00:09:41;96071.66;;;8.41;52.85
48156;BME280;35568;48.104;11.782;2024-03-17T00:12:09;96071.51;;;8.40;52.89
48156;BME280;35568;48.104;11.782;2024-03-17T00:14:36;96068.22;;;8.44;53.03
48156;BME280;35568;48.104;11.782;2024-03-17T00:17:03;96073.32;;;8.40;53.37
48156;BME280;35568;48.104;11.782;2024-03-17T00:19:30;96071.44;;;8.48;53.15
48156;BME280;35568;48.104;11.782;2024-03-17T00:21:59;96069.79;;;8.48;52.99
48156;BME280;35568;48.104;11.782;2024-03-17T00:24:26;96062.16;;;8.64;53.36
48156;BME280;35568;48.104;11.782;2024-03-17T00:26:53;96052.75;;;8.62;53.55
48156;BME280;35568;48.104;11.782;2024-03-17T00:29:20;96050.25;;;8.90;53.61
48156;BME280;35568;48.104;11.782;2024-03-17T00:31:47;96050.77;;;8.80;53.56
48156;BME280;35568;48.104;11.782;2024-03-17T00:34:13;96052.67;;;9.14;53.12
48156;BME280;35568;48.104;11.782;2024-03-17T00:36:41;96050.87;;;8.71;53.49
48156;BME280;35568;48.104;11.782;2024-03-17T00:39:08;96046.93;;;8.45;53.68
48156;BME280;35568;48.104;11.782;2024-03-17T00:41:35;96061.22;;;8.70;53.46
48156;BME280;35568;48.104;11.782;2024-03-17T00:44:02;96060.34;;;8.60;53.58
48156;BME280;35568;48.104;11.782;2024-03-17T00:46:29;96058.66;;;8.46;53.99
48156;BME280;35568;48.104;11.782;2024-03-17T00:48:56;96057.47;;;8.29;54.27
48156;BME280;35568;48.104;11.782;2024-03-17T00:51:23;96058.31;;;8.45;54.25
48156;BME280;35568;48.104;11.782;2024-03-17T00:53:50;96059.98;;;8.69;53.92
48156;BME280;35568;48.104;11.782;2024-03-17T00:56:17;96058.01;;;8.54;53.82
48156;BME280;35568;48.104;11.782;2024-03-17T00:58:44;96059.22;;;8.59;53.86
48156;BME280;35568;48.104;11.782;2024-03-17T01:01:11;96059.28;;;8.69;53.90
48156;BME280;35568;48.104;11.782;2024-03-17T01:03:38;96058.08;;;8.54;53.78
48156;BME280;35568;48.104;11.782;2024-03-17T01:06:08;96056.51;;;8.66;53.87
48156;BME280;35568;48.104;11.782;2024-03-17T01:08:34;96060.74;;;8.71;53.83
48156;BME280;35568;48.104;11.782;2024-03-17T01:11:01;96062.28;;;9.05;53.58
48156;BME280;35568;48.104;11.782;2024-03-17T01:13:28;96062.07;;;8.76;53.57
48156;BME280;35568;48.104;11.782;2024-03-17T01:15:56;96060.72;;;8.89;53.48
48156;BME280;35568;48.104;11.782;2024-03-17T01:18:23;96058.51;;;8.71;53.44
48156;BME280;35568;48.104;11.782;2024-03-17T01:20:50;96060.69;;;8.63;53.68
48156;BME280;35568;48.104;11.782;2024-03-17T01:23:17;96061.79;;;8.44;53.91
48156;BME280;35568;48.104;11.782;2024-03-17T01:25:44;96060.81;;;8.50;54.14
48156;BME280;35568;48.104;11.782;2024-03-17T01:28:11;96053.14;;;8.61;53.88
48156;BME280;35568;48.104;11.782;2024-03-17T01:30:38;96053.25;;;8.72;53.86
48156;BME280;35568;48.104;11.782;2024-03-17T01:33:04;96054.48;;;8.55;53.87
48156;BME280;35568;48.104;11.782;2024-03-17T01:35:31;96050.07;;;8.58;53.87
48156;BME280;35568;48.104;11.782;2024-03-17T01:37:58;96040.54;;;8.62;53.68
48156;BME280;35568;48.104;11.782;2024-03-17T01:40:25;96037.15;;;8.56;53.62
48156;BME280;35568;48.104;11.782;2024-03-17T01:42:52;96042.29;;;8.23;53.85
48156;BME280;35568;48.104;11.782;2024-03-17T01:45:27;96037.34;;;8.27;54.38
48156;BME280;35568;48.104;11.782;2024-03-17T01:47:55;96030.81;;;8.38;54.14
48156;BME280;35568;48.104;11.782;2024-03-17T01:50:22;96032.19;;;8.13;54.03
48156;BME280;35568;48.104;11.782;2024-03-17T01:52:48;96027.88;;;7.99;54.05
48156;BME280;35568;48.104;11.782;2024-03-17T01:55:15;96025.82;;;7.91;53.97
48156;BME280;35568;48.104;11.782;2024-03-17T01:57:43;96022.25;;;7.97;53.91
48156;BME280;35568;48.104;11.782;2024-03-17T02:00:11;96016.71;;;7.99;53.91
48156;BME280;35568;48.104;11.782;2024-03-17T02:02:38;96017.07;;;7.87;53.84
48156;BME280;35568;48.104;11.782;2024-03-17T02:05:06;96016.08;;;8.03;53.95
48156;BME280;35568;48.104;11.782;2024-03-17T02:07:33;96013.78;;;8.33;53.98
48156;BME280;35568;48.104;11.782;2024-03-17T02:10:00;96016.09;;;7.89;53.95
48156;BME280;35568;48.104;11.782;2024-03-17T02:12:27;96012.71;;;7.92;54.09
48156;BME280;35568;48.104;11.782;2024-03-17T02:14:54;96016.13;;;7.38;54.50
48156;BME280;35568;48.104;11.782;2024-03-17T02:17:22;96015.07;;;7.55;54.97
48156;BME280;35568;48.104;11.782;2024-03-17T02:19:50;96017.90;;;7.75;55.31
48156;BME280;35568;48.104;11.782;2024-03-17T02:22:16;96014.03;;;7.55;55.32
48156;BME280;35568;48.104;11.782;2024-03-17T02:24:43;96010.63;;;7.97;55.09
48156;BME280;35568;48.104;11.782;2024-03-17T02:27:10;96012.99;;;8.19;54.85
48156;BME280;35568;48.104;11.782;2024-03-17T02:29:37;96013.46;;;8.20;54.74
48156;BME280;35568;48.104;11.782;2024-03-17T02:32:06;96012.92;;;7.84;54.89
48156;BME280;35568;48.104;11.782;2024-03-17T02:34:33;96010.00;;;7.95;54.86
48156;BME280;35568;48.104;11.782;2024-03-17T02:37:01;96009.22;;;7.89;54.59
48156;BME280;35568;48.104;11.782;2024-03-17T02:39:29;96006.61;;;8.30;54.41
48156;BME280;35568;48.104;11.782;2024-03-17T02:41:56;95999.94;;;8.42;54.18
48156;BME280;35568;48.104;11.782;2024-03-17T02:44:23;95994.67;;;8.46;54.16
48156;BME280;35568;48.104;11.782;2024-03-17T02:46:50;95995.99;;;7.95;54.15
48156;BME280;35568;48.104;11.782;2024-03-17T02:49:17;95993.92;;;8.04;54.54
48156;BME280;35568;48.104;11.782;2024-03-17T02:51:44;95991.69;;;7.99;54.51
48156;BME280;35568;48.104;11.782;2024-03-17T02:54:11;95988.64;;;8.10;54.33
48156;BME280;35568;48.104;11.782;2024-03-17T02:56:38;95988.22;;;8.42;54.25
48156;BME280;35568;48.104;11.782;2024-03-17T02:59:04;95987.34;;;8.07;54.25
48156;BME280;35568;48.104;11.782;2024-03-17T03:01:31;95985.36;;;8.03;54.38
48156;BME280;35568;48.104;11.782;2024-03-17T03:03:58;95982.34;;;8.41;54.29
48156;BME280;35568;48.104;11.782;2024-03-17T03:06:25;95978.45;;;8.20;54.28
48156;BME280;35568;48.104;11.782;2024-03-17T03:08:52;95971.06;;;8.25;53.95
48156;BME280;35568;48.104;11.782;2024-03-17T03:11:19;95968.28;;;8.20;54.13
48156;BME280;35568;48.104;11.782;2024-03-17T03:13:46;95970.10;;;8.18;54.15
48156;BME280;35568;48.104;11.782;2024-03-17T03:16:13;95965.85;;;8.17;53.92
48156;BME280;35568;48.104;11.782;2024-03-17T03:18:41;95966.71;;;8.04;54.19
48156;BME280;35568;48.104;11.782;2024-03-17T03:21:09;95967.86;;;8.31;54.20
48156;BME280;35568;48.104;11.782;2024-03-17T03:23:36;95962.79;;;8.10;54.23
48156;BME280;35568;48.104;11.782;2024-03-17T03:26:04;95962.31;;;8.36;53.93
48156;BME280;35568;48.104;11.782;2024-03-17T03:28:33;95959.08;;;7.80;53.90
48156;BME280;35568;48.104;11.782;2024-03-17T03:31:00;95958.36;;;8.00;53.87
48156;BME280;35568;48.104;11.782;2024-03-17T03:33:26;95960.28;;;7.61;53.95
48156;BME280;35568;48.104;11.782;2024-03-17T03:35:53;95963.63;;;7.87;53.94
48156;BME280;35568;48.104;11.782;2024-03-17T03:38:20;95963.10;;;7.58;54.16
48156;BME280;35568;48.104;11.782;2024-03-17T03:40:48;95965.32;;;7.51;54.91
48156;BME280;35568;48.104;11.782;2024-03-17T03:43:15;95964.67;;;7.54;55.03
48156;BME280;35568;48.104;11.782;2024-03-17T03:45:42;95968.27;;;7.39;54.94
48156;BME280;35568;48.104;11.782;2024-03-17T03:48:10;95967.67;;;7.69;54.85
48156;BME280;35568;48.104;11.782;2024-03-17T03:50:38;95970.03;;;7.54;55.23
48156;BME280;35568;48.104;11.782;2024-03-17T03:53:05;95966.53;;;7.51;55.29
48156;BME280;35568;48.104;11.782;2024-03-17T03:55:32;95966.07;;;7.51;55.04
48156;BME280;35568;48.104;11.782;2024-03-17T03:57:59;95965.17;;;7.70;54.83
48156;BME280;35568;48.104;11.782;2024-03-17T04:03:00;95957.47;;;7.64;54.39
48156;BME280;35568;48.104;11.782;2024-03-17T04:05:27;95960.16;;;7.94;54.36
48156;BME280;35568;48.104;11.782;2024-03-17T04:07:54;95958.77;;;7.64;54.52
48156;BME280;35568;48.104;11.782;2024-03-17T04:10:21;95959.02;;;7.81;54.66
48156;BME280;35568;48.104;11.782;2024-03-17T04:12:48;95956.18;;;7.89;54.73
48156;BME280;35568;48.104;11.782;2024-03-17T04:15:15;95953.28;;;7.81;54.55
48156;BME280;35568;48.104;11.782;2024-03-17T04:17:42;95953.53;;;7.60;54.35
48156;BME280;35568;48.104;11.782;2024-03-17T04:20:10;95952.28;;;8.09;54.36
48156;BME280;35568;48.104;11.782;2024-03-17T04:22:38;95957.71;;;7.86;54.33
48156;BME280;35568;48.104;11.782;2024-03-17T04:25:05;95958.37;;;7.49;54.41
48156;BME280;35568;48.104;11.782;2024-03-17T04:27:32;95957.66;;;8.01;54.19
48156;BME280;35568;48.104;11.782;2024-03-17T04:30:00;95957.67;;;7.79;54.03
48156;BME280;35568;48.104;11.782;2024-03-17T04:32:27;95952.67;;;7.76;53.96
48156;BME280;35568;48.104;11.782;2024-03-17T04:34:54;95950.34;;;7.68;53.98
48156;BME280;35568;48.104;11.782;2024-03-17T04:37:21;95950.77;;;7.63;53.97
48156;BME280;35568;48.104;11.782;2024-03-17T04:39:49;95955.15;;;7.84;53.89
48156;BME280;35568;48.104;11.782;2024-03-17T04:42:17;95956.73;;;7.81;53.94
48156;BME280;35568;48.104;11.782;2024-03-17T04:44:45;95957.88;;;7.79;54.03
48156;BME280;35568;48.104;11.782;2024-03-17T04:47:13;95954.88;;;7.31;54.08
48156;BME280;35568;48.104;11.782;2024-03-17T04:49:42;95953.40;;;7.66;54.05
48156;BME280;35568;48.104;11.782;2024-03-17T04:52:10;95953.33;;;7.63;54.08
48156;BME280;35568;48.104;11.782;2024-03-17T04:54:38;95953.49;;;7.77;54.15
48156;BME280;35568;48.104;11.782;2024-03-17T04:57:05;95955.16;;;7.71;54.45
48156;BME280;35568;48.104;11.782;2024-03-17T04:59:34;95955.40;;;7.42;54.53
48156;BME280;35568;48.104;11.782;2024-03-17T05:02:02;95958.45;;;7.55;54.69
48156;BME280;35568;48.104;11.782;2024-03-17T05:04:28;95962.89;;;7.72;54.41
48156;BME280;35568;48.104;11.782;2024-03-17T05:06:55;95963.99;;;7.73;54.41
48156;BME280;35568;48.104;11.782;2024-03-17T05:09:22;95965.77;;;7.75;54.37
48156;BME280;35568;48.104;11.782;2024-03-17T05:11:50;95969.03;;;7.53;54.31
48156;BME280;35568;48.104;11.782;2024-03-17T05:14:17;95971.09;;;7.51;54.44
48156;BME280;35568;48.104;11.782;2024-03-17T05:16:44;95967.30;;;7.67;54.49
48156;BME280;35568;48.104;11.782;2024-03-17T05:19:11;95970.89;;;7.60;54.23
48156;BME280;35568;48.104;11.782;2024-03-17T05:21:38;95968.30;;;7.85;54.04
48156;BME280;35568;48.104;11.782;2024-03-17T05:24:05;95966.05;;;7.36;54.28
48156;BME280;35568;48.104;11.782;2024-03-17T05:26:32;95966.55;;;7.60;54.53
48156;BME280;35568;48.104;11.782;2024-03-17T05:28:59;95966.03;;;7.78;54.28
48156;BME280;35568;48.104;11.782;2024-03-17T05:31:26;95969.92;;;8.01;54.08
48156;BME280;35568;48.104;11.782;2024-03-17T05:33:53;95972.99;;;7.50;54.39
48156;BME280;35568;48.104;11.782;2024-03-17T05:36:20;95972.63;;;7.41;54.56
48156;BME280;35568;48.104;11.782;2024-03-17T05:38:47;95979.09;;;7.61;54.48
48156;BME280;35568;48.104;11.782;2024-03-17T05:41:14;95978.34;;;7.64;54.58
48156;BME280;35568;48.104;11.782;2024-03-17T05:43:41;95977.68;;;7.58;54.43
48156;BME280;35568;48.104;11.782;2024-03-17T05:46:10;95981.69;;;7.67;54.51
48156;BME280;35568;48.104;11.782;2024-03-17T05:48:38;95979.85;;;7.92;54.32
48156;BME280;35568;48.104;11.782;2024-03-17T05:51:06;95984.57;;;7.55;54.19
48156;BME280;35568;48.104;11.782;2024-03-17T05:53:33;95993.96;;;7.30;54.80
48156;BME280;35568;48.104;11.782;2024-03-17T05:56:00;95994.94;;;7.25;55.38
48156;BME280;35568;48.104;11.782;2024-03-17T05:58:28;95994.00;;;7.54;55.11
48156;BME280;35568;48.104;11.782;2024-03-17T06:00:56;95986.33;;;7.84;54.99
48156;BME280;35568;48.104;11.782;2024-03-17T06:03:23;95988.01;;;8.16;54.55
48156;BME280;35568;48.104;11.782;2024-03-17T06:05:50;95984.99;;;8.05;53.74
48156;BME280;35568;48.104;11.782;2024-03-17T06:08:17;95989.15;;;8.10;53.54
48156;BME280;35568;48.104;11.782;2024-03-17T06:10:46;95990.64;;;8.12;53.58
48156;BME280;35568;48.104;11.782;2024-03-17T06:13:13;95990.39;;;8.19;53.40
48156;BME280;35568;48.104;11.782;2024-03-17T06:15:40;95988.99;;;8.28;53.29
48156;BME280;35568;48.104;11.782;2024-03-17T06:18:08;95987.72;;;8.34;53.41
48156;BME280;35568;48.104;11.782;2024-03-17T06:20:40;95989.64;;;8.66;53.13
48156;BME280;35568;48.104;11.782;2024-03-17T06:23:07;95992.46;;;8.43;52.97
48156;BME280;35568;48.104;11.782;2024-03-17T06:25:39;95989.88;;;8.62;53.15
48156;BME280;35568;48.104;11.782;2024-03-17T06:28:07;95990.80;;;8.55;53.31
48156;BME280;35568;48.104;11.782;2024-03-17T06:30:34;95993.07;;;8.36;52.99
48156;BME280;35568;48.104;11.782;2024-03-17T06:33:00;95989.67;;;8.79;52.87
48156;BME280;35568;48.104;11.782;2024-03-17T06:35:29;95990.82;;;8.70;52.83
48156;BME280;35568;48.104;11.782;2024-03-17T06:37:59;95989.99;;;8.98;52.23
48156;BME280;35568;48.104;11.782;2024-03-17T06:40:26;95988.24;;;9.15;52.13
48156;BME280;35568;48.104;11.782;2024-03-17T06:42:53;95995.47;;;9.18;52.10
48156;BME280;35568;48.104;11.782;2024-03-17T06:45:20;95997.16;;;9.13;51.76
48156;BME280;35568;48.104;11.782;2024-03-17T06:47:47;95999.07;;;9.41;52.14
48156;BME280;35568;48.104;11.782;2024-03-17T06:50:14;95984.09;;;9.09;52.47
48156;BME280;35568;48.104;11.782;2024-03-17T06:52:41;95985.04;;;9.66;51.92
48156;BME280;35568;48.104;11.782;2024-03-17T06:55:08;95977.43;;;9.34;51.43
48156;BME280;35568;48.104;11.782;2024-03-17T06:57:35;95978.37;;;9.81;51.31
48156;BME280;35568;48.104;11.782;2024-03-17T07:00:02;95980.77;;;9.51;50.91
48156;BME280;35568;48.104;11.782;2024-03-17T07:02:29;95984.15;;;9.80;50.93
48156;BME280;35568;48.104;11.782;2024-03-17T07:04:56;95991.25;;;9.78;50.82
48156;BME280;35568;48.104;11.782;2024-03-17T07:07:27;95993.14;;;9.91;50.45
48156;BME280;35568;48.104;11.782;2024-03-17T07:09:54;95987.83;;;10.06;50.24
48156;BME280;35568;48.104;11.782;2024-03-17T07:12:20;95990.20;;;10.19;49.40
48156;BME280;35568;48.104;11.782;2024-03-17T07:14:51;96000.26;;;10.01;49.51
48156;BME280;35568;48.104;11.782;2024-03-17T07:17:18;95997.75;;;9.99;49.39
48156;BME280;35568;48.104;11.782;2024-03-17T07:19:46;95994.06;;;10.41;49.08
48156;BME280;35568;48.104;11.782;2024-03-17T07:22:14;95988.69;;;10.33;49.13
48156;BME280;35568;48.104;11.782;2024-03-17T07:24:41;95985.97;;;10.12;49.14
48156;BME280;35568;48.104;11.782;2024-03-17T07:27:07;95987.84;;;10.09;48.43
48156;BME280;35568;48.104;11.782;2024-03-17T07:29:34;95987.78;;;9.77;49.29
48156;BME280;35568;48.104;11.782;2024-03-17T07:32:01;95987.20;;;10.51;48.42
48156;BME280;35568;48.104;11.782;2024-03-17T07:34:31;95985.95;;;10.45;47.89
48156;BME280;35568;48.104;11.782;2024-03-17T07:36:59;95981.82;;;10.97;47.29
48156;BME280;35568;48.104;11.782;2024-03-17T07:39:29;95982.57;;;11.68;46.47
48156;BME280;35568;48.104;11.782;2024-03-17T07:41:56;95978.82;;;12.13;45.13
48156;BME280;35568;48.104;11.782;2024-03-17T07:44:23;95971.80;;;12.00;44.92
48156;BME280;35568;48.104;11.782;2024-03-17T07:46:50;95970.87;;;12.09;44.58
48156;BME280;35568;48.104;11.782;2024-03-17T07:49:17;95969.08;;;12.47;44.34
48156;BME280;35568;48.104;11.782;2024-03-17T07:51:43;95968.83;;;11.87;43.89
48156;BME280;35568;48.104;11.782;2024-03-17T07:54:12;95971.03;;;11.02;44.40
48156;BME280;35568;48.104;11.782;2024-03-17T07:56:39;95971.61;;;12.81;43.76
48156;BME280;35568;48.104;11.782;2024-03-17T07:59:06;95971.85;;;12.74;43.58
48156;BME280;35568;48.104;11.782;2024-03-17T08:01:32;95965.02;;;12.75;44.25
48156;BME280;35568;48.104;11.782;2024-03-17T08:03:59;95957.91;;;13.09;44.20
48156;BME280;35568;48.104;11.782;2024-03-17T08:06:26;95962.21;;;13.26;43.88
48156;BME280;35568;48.104;11.782;2024-03-17T08:08:53;95958.87;;;13.36;43.17
48156;BME280;35568;48.104;11.782;2024-03-17T08:11:20;95951.97;;;14.12;42.60
48156;BME280;35568;48.104;11.782;2024-03-17T08:13:46;95955.31;;;14.50;41.59
48156;BME280;35568;48.104;11.782;2024-03-17T08:16:14;95958.77;;;14.89;41.10
48156;BME280;35568;48.104;11.782;2024-03-17T08:18:42;95954.84;;;14.58;41.01
48156;BME280;35568;48.104;11.782;2024-03-17T08:21:09;95946.58;;;14.25;41.59
48156;BME280;35568;48.104;11.782;2024-03-17T08:23:37;95945.20;;;14.87;41.40
48156;BME280;35568;48.104;11.782;2024-03-17T08:26:05;95952.40;;;14.85;40.75
48156;BME280;35568;48.104;11.782;2024-03-17T08:28:32;95951.20;;;14.92;40.57
48156;BME280;35568;48.104;11.782;2024-03-17T08:31:00;95942.49;;;14.89;39.78
48156;BME280;35568;48.104;11.782;2024-03-17T08:33:28;95946.27;;;15.56;39.78
48156;BME280;35568;48.104;11.782;2024-03-17T08:35:56;95947.02;;;15.58;39.63
48156;BME280;35568;48.104;11.782;2024-03-17T08:38:24;95949.14;;;15.09;39.10
48156;BME280;35568;48.104;11.782;2024-03-17T08:40:51;95947.15;;;14.96;39.31
48156;BME280;35568;48.104;11.782;2024-03-17T08:43:20;95941.13;;;15.09;39.44
48156;BME280;35568;48.104;11.782;2024-03-17T08:45:54;95941.98;;;15.00;40.12
48156;BME280;35568;48.104;11.782;2024-03-17T08:48:22;95936.76;;;14.45;40.43
48156;BME280;35568;48.104;11.782;2024-03-17T08:50:50;95936.61;;;14.70;40.31
48156;BME280;35568;48.104;11.782;2024-03-17T08:53:18;95933.47;;;14.84;40.07
48156;BME280;35568;48.104;11.782;2024-03-17T08:55:45;95929.85;;;15.39;39.62
48156;BME280;35568;48.104;11.782;2024-03-17T08:58:12;95929.41;;;14.92;39.63
48156;BME280;35568;48.104;11.782;2024-03-17T09:00:38;95923.01;;;14.63;39.01
48156;BME280;35568;48.104;11.782;2024-03-17T09:03:06;95918.56;;;13.91;39.72
48156;BME280;35568;48.104;11.782;2024-03-17T09:05:33;95917.29;;;14.84;38.96
48156;BME280;35568;48.104;11.782;2024-03-17T09:07:59;95915.66;;;15.90;37.55
48156;BME280;35568;48.104;11.782;2024-03-17T09:10:26;95906.11;;;16.17;36.59
48156;BME280;35568;48.104;11.782;2024-03-17T09:12:53;95916.21;;;15.96;36.70
48156;BME280;35568;48.104;11.782;2024-03-17T09:15:21;95917.67;;;16.33;36.16
48156;BME280;35568;48.104;11.782;2024-03-17T09:17:47;95912.55;;;16.74;35.81
48156;BME280;35568;48.104;11.782;2024-03-17T09:20:14;95907.26;;;17.36;33.93
48156;BME280;35568;48.104;11.782;2024-03-17T09:22:41;95905.39;;;17.36;34.08
48156;BME280;35568;48.104;11.782;2024-03-17T09:25:09;95908.12;;;17.04;34.16
48156;BME280;35568;48.104;11.782;2024-03-17T09:27:36;95906.78;;;17.49;34.60
48156;BME280;35568;48.104;11.782;2024-03-17T09:30:04;95901.44;;;16.74;35.03
48156;BME280;35568;48.104;11.782;2024-03-17T09:32:30;95903.27;;;16.86;35.09
48156;BME280;35568;48.104;11.782;2024-03-17T09:34:57;95904.32;;;17.67;34.01
48156;BME280;35568;48.104;11.782;2024-03-17T09:37:24;95900.28;;;17.48;33.69
48156;BME280;35568;48.104;11.782;2024-03-17T09:39:51;95898.44;;;18.44;33.42
48156;BME280;35568;48.104;11.782;2024-03-17T09:42:19;95897.04;;;18.95;32.98
48156;BME280;35568;48.104;11.782;2024-03-17T09:44:46;95895.07;;;19.37;32.01
48156;BME280;35568;48.104;11.782;2024-03-17T09:47:19;95892.41;;;19.56;31.87
48156;BME280;35568;48.104;11.782;2024-03-17T09:49:47;95888.75;;;19.64;32.22
48156;BME280;35568;48.104;11.782;2024-03-17T09:52:20;95891.08;;;19.68;31.94
48156;BME280;35568;48.104;11.782;2024-03-17T09:54:54;95887.18;;;19.86;31.58
48156;BME280;35568;48.104;11.782;2024-03-17T09:57:22;95887.75;;;19.01;31.92
48156;BME280;35568;48.104;11.782;2024-03-17T09:59:51;95889.75;;;19.92;31.86
48156;BME280;35568;48.104;11.782;2024-03-17T10:02:18;95883.99;;;20.45;30.55
48156;BME280;35568;48.104;11.782;2024-03-17T10:04:45;95883.04;;;19.20;30.43
48156;BME280;35568;48.104;11.782;2024-03-17T10:07:12;95883.45;;;17.87;33.01
48156;BME280;35568;48.104;11.782;2024-03-17T10:09:39;95882.51;;;17.60;32.90
48156;BME280;35568;48.104;11.782;2024-03-17T10:12:26;95878.99;;;17.84;34.54
48156;BME280;35568;48.104;11.782;2024-03-17T10:15:01;95870.35;;;17.90;33.08
48156;BME280;35568;48.104;11.782;2024-03-17T10:17:30;95868.80;;;18.09;33.18
48156;BME280;35568;48.104;11.782;2024-03-17T10:20:13;95866.79;;;18.55;33.24
48156;BME280;35568;48.104;11.782;2024-03-17T10:22:40;95871.42;;;18.07;33.57
48156;BME280;35568;48.104;11.782;2024-03-17T10:25:08;95873.94;;;18.06;32.75
48156;BME280;35568;48.104;11.782;2024-03-17T10:27:43;95869.34;;;16.85;33.64
48156;BME280;35568;48.104;11.782;2024-03-17T10:30:18;95867.92;;;16.95;32.82
48156;BME280;35568;48.104;11.782;2024-03-17T10:32:45;95870.37;;;16.66;33.02
48156;BME280;35568;48.104;11.782;2024-03-17T10:35:29;95869.45;;;16.27;33.88
48156;BME280;35568;48.104;11.782;2024-03-17T10:37:58;95868.25;;;16.25;34.03
48156;BME280;35568;48.104;11.782;2024-03-17T10:40:27;95868.96;;;16.15;33.78
48156;BME280;35568;48.104;11.782;2024-03-17T10:42:54;95869.33;;;15.39;34.29
48156;BME280;35568;48.104;11.782;2024-03-17T10:45:21;95865.84;;;15.54;34.93
48156;BME280;35568;48.104;11.782;2024-03-17T10:47:49;95860.65;;;15.76;34.34
48156;BME280;35568;48.104;11.782;2024-03-17T10:50:19;95863.13;;;16.03;34.54
48156;BME280;35568;48.104;11.782;2024-03-17T10:52:47;95866.71;;;15.80;35.32
48156;BME280;35568;48.104;11.782;2024-03-17T10:55:25;95862.59;;;16.10;34.85
48156;BME280;35568;48.104;11.782;2024-03-17T10:57:54;95861.57;;;16.15;34.28
48156;BME280;35568;48.104;11.782;2024-03-17T11:00:22;95863.08;;;16.18;34.14
48156;BME280;35568;48.104;11.782;2024-03-17T11:02:51;95857.91;;;16.28;34.55
48156;BME280;35568;48.104;11.782;2024-03-17T11:05:21;95846.03;;;16.53;35.13
48156;BME280;35568;48.104;11.782;2024-03-17T11:07:49;95841.78;;;16.26;34.24
48156;BME280;35568;48.104;11.782;2024-03-17T11:10:21;95836.88;;;16.62;34.19
48156;BME280;35568;48.104;11.782;2024-03-17T11:12:50;95835.78;;;16.74;34.17
48156;BME280;35568;48.104;11.782;2024-03-17T11:15:36;95833.36;;;17.81;33.10
48156;BME280;35568;48.104;11.782;2024-03-17T11:18:37;95822.47;;;18.57;31.71
48156;BME280;35568;48.104;11.782;2024-03-17T11:21:06;95820.11;;;19.52;31.24
48156;BME280;35568;48.104;11.782;2024-03-17T11:23:34;95816.67;;;19.18;30.89
48156;BME280;35568;48.104;11.782;2024-03-17T11:26:03;95810.43;;;20.24;30.11
48156;BME280;35568;48.104;11.782;2024-03-17T11:28:51;95810.55;;;19.92;29.37
48156;BME280;35568;48.104;11.782;2024-03-17T11:31:50;95811.08;;;19.94;29.46
48156;BME280;35568;48.104;11.782;2024-03-17T11:34:34;95807.56;;;21.09;27.46
48156;BME280;35568;48.104;11.782;2024-03-17T11:37:03;95803.42;;;21.37;27.73
48156;BME280;35568;48.104;11.782;2024-03-17T11:39:48;95803.28;;;21.66;27.36
48156;BME280;35568;48.104;11.782;2024-03-17T11:42:15;95805.31;;;21.92;27.78
48156;BME280;35568;48.104;11.782;2024-03-17T11:44:43;95805.34;;;22.25;27.46
48156;BME280;35568;48.104;11.782;2024-03-17T11:47:11;95803.64;;;22.21;26.98
48156;BME280;35568;48.104;11.782;2024-03-17T11:49:40;95798.66;;;22.16;26.41
48156;BME280;35568;48.104;11.782;2024-03-17T11:52:10;95795.18;;;21.19;27.66
48156;BME280;35568;48.104;11.782;2024-03-17T11:54:39;95799.16;;;20.68;27.92
48156;BME280;35568;48.104;11.782;2024-03-17T11:57:08;95804.54;;;20.08;29.33
48156;BME280;35568;48.104;11.782;2024-03-17T11:59:35;95805.76;;;19.76;28.79
48156;BME280;35568;48.104;11.782;2024-03-17T12:02:02;95805.37;;;19.84;28.38
48156;BME280;35568;48.104;11.782;2024-03-17T12:04:40;95802.29;;;19.64;29.38
48156;BME280;35568;48.104;11.782;2024-03-17T12:07:13;95796.58;;;20.10;28.74
48156;BME280;35568;48.104;11.782;2024-03-17T12:09:41;95792.32;;;19.83;27.93
48156;BME280;35568;48.104;11.782;2024-03-17T12:12:10;95794.29;;;21.05;27.07
48156;BME280;35568;48.104;11.782;2024-03-17T12:14:38;95796.60;;;22.58;26.45
48156;BME280;35568;48.104;11.782;2024-03-17T12:17:07;95794.64;;;21.92;25.92
48156;BME280;35568;48.104;11.782;2024-03-17T12:19:35;95787.35;;;21.90;25.77
48156;BME280;35568;48.104;11.782;2024-03-17T12:22:03;95783.23;;;23.00;25.62
48156;BME280;35568;48.104;11.782;2024-03-17T12:24:32;95784.25;;;22.69;24.43
48156;BME280;35568;48.104;11.782;2024-03-17T12:27:01;95781.17;;;21.63;24.98
48156;BME280;35568;48.104;11.782;2024-03-17T12:29:29;95771.52;;;21.25;26.21
48156;BME280;35568;48.104;11.782;2024-03-17T12:31:58;95767.23;;;20.24;26.72
48156;BME280;35568;48.104;11.782;2024-03-17T12:34:27;95765.55;;;20.30;27.14
48156;BME280;35568;48.104;11.782;2024-03-17T12:36:55;95762.53;;;20.58;27.87
48156;BME280;35568;48.104;11.782;2024-03-17T12:39:24;95755.47;;;20.56;28.07
48156;BME280;35568;48.104;11.782;2024-03-17T12:42:08;95750.27;;;20.24;28.26
48156;BME280;35568;48.104;11.782;2024-03-17T12:44:37;95747.78;;;19.74;27.78
48156;BME280;35568;48.104;11.782;2024-03-17T12:47:05;95741.15;;;20.25;27.65
48156;BME280;35568;48.104;11.782;2024-03-17T12:49:34;95741.29;;;20.13;27.57
48156;BME280;35568;48.104;11.782;2024-03-17T12:52:01;95741.61;;;19.93;28.05
48156;BME280;35568;48.104;11.782;2024-03-17T12:54:29;95745.23;;;18.92;29.21
48156;BME280;35568;48.104;11.782;2024-03-17T12:57:04;95747.23;;;18.84;29.26
48156;BME280;35568;48.104;11.782;2024-03-17T12:59:40;95748.11;;;18.34;30.39
48156;BME280;35568;48.104;11.782;2024-03-17T13:02:11;95750.18;;;18.16;30.74
48156;BME280;35568;48.104;11.782;2024-03-17T13:04:38;95749.26;;;18.10;30.67